sensor_id;sensor_type;location;lat;lon;timestamp;pressure;altitude;pressure_sealevel;temperature;humidity
79374;BME280;68844;53.128;17.958;2023-04-03T00:01:06;102247.17;;;-1.17;72.48
79374;BME280;68844;53.128;17.958;2023-04-03T00:03:33;102245.44;;;-1.18;73.05
79374;BME280;68844;53.128;17.958;2023-04-03T00:06:00;102247.95;;;-1.12;73.58
79374;BME280;68844;53.128;17.958;2023-04-03T00:08:27;102244.64;;;-1.13;72.79
79374;BME280;68844;53.128;17.958;2023-04-03T00:10:57;102243.92;;;-1.14;72.63
79374;BME280;68844;53.128;17.958;2023-04-03T00:13:23;102236.48;;;-1.15;72.84
79374;BME280;68844;53.128;17.958;2023-04-03T00:15:52;102240.44;;;-1.17;72.96
79374;BME280;68844;53.128;17.958;2023-04-03T00:18:19;102242.17;;;-1.17;72.94
79374;BME280;68844;53.128;17.958;2023-04-03T00:20:46;102240.88;;;-1.12;73.30
79374;BME280;68844;53.128;17.958;2023-04-03T00:23:12;102238.58;;;-1.14;73.51
79374;BME280;68844;53.128;17.958;2023-04-03T00:25:39;102238.00;;;-1.18;73.02
79374;BME280;68844;53.128;17.958;2023-04-03T00:28:06;102236.56;;;-1.22;73.96
79374;BME280;68844;53.128;17.958;2023-04-03T00:30:33;102239.98;;;-1.26;73.43
79374;BME280;68844;53.128;17.958;2023-04-03T00:32:59;102234.73;;;-1.29;73.99
79374;BME280;68844;53.128;17.958;2023-04-03T00:35:27;102235.13;;;-1.26;73.71
79374;BME280;68844;53.128;17.958;2023-04-03T00:37:55;102234.97;;;-1.25;74.04
79374;BME280;68844;53.128;17.958;2023-04-03T00:40:24;102233.94;;;-1.25;74.14
79374;BME280;68844;53.128;17.958;2023-04-03T00:42:58;102235.48;;;-1.25;73.97
79374;BME280;68844;53.128;17.958;2023-04-03T00:45:35;102235.13;;;-1.25;73.61
79374;BME280;68844;53.128;17.958;2023-04-03T00:48:05;102237.14;;;-1.30;73.54
79374;BME280;68844;53.128;17.958;2023-04-03T00:50:36;102237.14;;;-1.30;73.67
79374;BME280;68844;53.128;17.958;2023-04-03T00:53:05;102240.45;;;-1.28;74.25
79374;BME280;68844;53.128;17.958;2023-04-03T00:55:34;102239.72;;;-1.31;73.78
79374;BME280;68844;53.128;17.958;2023-04-03T00:58:02;102239.17;;;-1.33;74.49
79374;BME280;68844;53.128;17.958;2023-04-03T01:00:29;102237.06;;;-1.34;74.00
79374;BME280;68844;53.128;17.958;2023-04-03T01:02:56;102237.39;;;-1.35;73.56
79374;BME280;68844;53.128;17.958;2023-04-03T01:05:23;102239.33;;;-1.33;73.73
79374;BME280;68844;53.128;17.958;2023-04-03T01:07:51;102236.52;;;-1.36;74.24
79374;BME280;68844;53.128;17.958;2023-04-03T01:10:19;102238.39;;;-1.39;74.69
79374;BME280;68844;53.128;17.958;2023-04-03T01:12:49;102235.91;;;-1.42;74.02
79374;BME280;68844;53.128;17.958;2023-04-03T01:15:23;102238.42;;;-1.46;74.15
79374;BME280;68844;53.128;17.958;2023-04-03T01:17:55;102246.85;;;-1.48;74.40
79374;BME280;68844;53.128;17.958;2023-04-03T01:25:40;102245.58;;;-1.52;75.22
79374;BME280;68844;53.128;17.958;2023-04-03T01:28:12;102247.95;;;-1.54;74.56
79374;BME280;68844;53.128;17.958;2023-04-03T01:30:50;102248.53;;;-1.52;75.01
79374;BME280;68844;53.128;17.958;2023-04-03T01:33:17;102248.14;;;-1.53;74.81
79374;BME280;68844;53.128;17.958;2023-04-03T01:35:46;102252.29;;;-1.53;74.35
79374;BME280;68844;53.128;17.958;2023-04-03T01:38:13;102257.34;;;-1.51;75.82
79374;BME280;68844;53.128;17.958;2023-04-03T01:40:39;102257.07;;;-1.46;75.49
79374;BME280;68844;53.128;17.958;2023-04-03T01:43:06;102259.86;;;-1.45;75.10
79374;BME280;68844;53.128;17.958;2023-04-03T01:45:33;102256.20;;;-1.47;74.77
79374;BME280;68844;53.128;17.958;2023-04-03T01:48:00;102255.42;;;-1.52;74.94
79374;BME280;68844;53.128;17.958;2023-04-03T01:50:27;102260.76;;;-1.54;74.63
79374;BME280;68844;53.128;17.958;2023-04-03T01:52:54;102260.65;;;-1.50;75.33
79374;BME280;68844;53.128;17.958;2023-04-03T01:55:21;102261.53;;;-1.49;75.65
79374;BME280;68844;53.128;17.958;2023-04-03T01:57:48;102265.27;;;-1.53;75.76
79374;BME280;68844;53.128;17.958;2023-04-03T02:00:15;102263.63;;;-1.58;75.03
79374;BME280;68844;53.128;17.958;2023-04-03T02:02:42;102264.78;;;-1.61;75.18
79374;BME280;68844;53.128;17.958;2023-04-03T02:05:09;102265.10;;;-1.63;75.01
79374;BME280;68844;53.128;17.958;2023-04-03T02:07:36;102260.35;;;-1.57;75.66
79374;BME280;68844;53.128;17.958;2023-04-03T02:10:03;102263.86;;;-1.54;75.72
79374;BME280;68844;53.128;17.958;2023-04-03T02:12:30;102263.95;;;-1.59;75.43
79374;BME280;68844;53.128;17.958;2023-04-03T02:14:59;102266.48;;;-1.63;75.33
79374;BME280;68844;53.128;17.958;2023-04-03T02:17:27;102267.86;;;-1.63;74.99
79374;BME280;68844;53.128;17.958;2023-04-03T02:19:55;102268.15;;;-1.66;74.99
79374;BME280;68844;53.128;17.958;2023-04-03T02:22:22;102265.35;;;-1.69;75.17
79374;BME280;68844;53.128;17.958;2023-04-03T02:24:49;102264.09;;;-1.71;75.48
79374;BME280;68844;53.128;17.958;2023-04-03T02:27:16;102265.27;;;-1.73;75.35
79374;BME280;68844;53.128;17.958;2023-04-03T02:29:43;102267.09;;;-1.77;75.27
79374;BME280;68844;53.128;17.958;2023-04-03T02:32:10;102268.39;;;-1.81;74.99
79374;BME280;68844;53.128;17.958;2023-04-03T02:34:38;102269.79;;;-1.80;74.95
79374;BME280;68844;53.128;17.958;2023-04-03T02:37:05;102272.38;;;-1.80;75.77
79374;BME280;68844;53.128;17.958;2023-04-03T02:39:33;102277.23;;;-1.80;76.07
79374;BME280;68844;53.128;17.958;2023-04-03T02:42:00;102280.98;;;-1.83;75.71
79374;BME280;68844;53.128;17.958;2023-04-03T02:44:28;102283.81;;;-1.88;75.48
79374;BME280;68844;53.128;17.958;2023-04-03T02:46:55;102288.23;;;-1.91;75.85
79374;BME280;68844;53.128;17.958;2023-04-03T02:49:21;102286.80;;;-1.94;75.64
79374;BME280;68844;53.128;17.958;2023-04-03T02:51:48;102289.40;;;-1.94;75.57
79374;BME280;68844;53.128;17.958;2023-04-03T02:54:15;102289.86;;;-1.97;75.87
79374;BME280;68844;53.128;17.958;2023-04-03T02:56:45;102290.11;;;-2.02;76.18
79374;BME280;68844;53.128;17.958;2023-04-03T02:59:12;102294.83;;;-2.08;76.19
79374;BME280;68844;53.128;17.958;2023-04-03T03:01:39;102297.48;;;-2.13;76.52
79374;BME280;68844;53.128;17.958;2023-04-03T03:04:06;102295.70;;;-2.16;76.29
79374;BME280;68844;53.128;17.958;2023-04-03T03:06:33;102298.33;;;-2.14;77.16
79374;BME280;68844;53.128;17.958;2023-04-03T03:09:00;102299.02;;;-2.13;77.20
79374;BME280;68844;53.128;17.958;2023-04-03T03:11:27;102299.73;;;-2.12;77.60
79374;BME280;68844;53.128;17.958;2023-04-03T03:13:55;102299.71;;;-2.14;76.71
79374;BME280;68844;53.128;17.958;2023-04-03T03:16:22;102301.03;;;-2.17;76.70
79374;BME280;68844;53.128;17.958;2023-04-03T03:18:50;102297.88;;;-2.19;76.66
79374;BME280;68844;53.128;17.958;2023-04-03T03:21:17;102301.70;;;-2.18;77.01
79374;BME280;68844;53.128;17.958;2023-04-03T03:23:44;102303.16;;;-2.14;77.33
79374;BME280;68844;53.128;17.958;2023-04-03T03:26:12;102299.84;;;-2.16;76.90
79374;BME280;68844;53.128;17.958;2023-04-03T03:28:39;102301.01;;;-2.18;77.27
79374;BME280;68844;53.128;17.958;2023-04-03T03:31:10;102300.99;;;-2.18;77.29
79374;BME280;68844;53.128;17.958;2023-04-03T03:33:39;102305.31;;;-2.18;76.70
79374;BME280;68844;53.128;17.958;2023-04-03T03:36:07;102303.79;;;-2.17;77.10
79374;BME280;68844;53.128;17.958;2023-04-03T03:38:34;102309.17;;;-2.15;77.91
79374;BME280;68844;53.128;17.958;2023-04-03T03:41:01;102313.36;;;-2.12;77.83
79374;BME280;68844;53.128;17.958;2023-04-03T03:43:29;102311.39;;;-2.16;77.19
79374;BME280;68844;53.128;17.958;2023-04-03T03:45:57;102311.00;;;-2.18;77.21
79374;BME280;68844;53.128;17.958;2023-04-03T03:48:24;102315.77;;;-2.21;77.02
79374;BME280;68844;53.128;17.958;2023-04-03T03:50:51;102313.62;;;-2.25;77.29
79374;BME280;68844;53.128;17.958;2023-04-03T03:53:20;102317.06;;;-2.26;78.10
79374;BME280;68844;53.128;17.958;2023-04-03T03:55:47;102321.61;;;-2.23;77.92
79374;BME280;68844;53.128;17.958;2023-04-03T03:58:14;102322.44;;;-2.24;78.19
79374;BME280;68844;53.128;17.958;2023-04-03T04:00:42;102323.59;;;-2.28;78.10
79374;BME280;68844;53.128;17.958;2023-04-03T04:03:09;102325.73;;;-2.32;77.37
79374;BME280;68844;53.128;17.958;2023-04-03T04:05:36;102331.84;;;-2.37;77.22
79374;BME280;68844;53.128;17.958;2023-04-03T04:08:03;102330.59;;;-2.38;77.60
79374;BME280;68844;53.128;17.958;2023-04-03T04:10:30;102330.98;;;-2.36;78.33
79374;BME280;68844;53.128;17.958;2023-04-03T04:12:58;102334.73;;;-2.39;77.97
79374;BME280;68844;53.128;17.958;2023-04-03T04:15:26;102338.48;;;-2.41;77.38
79374;BME280;68844;53.128;17.958;2023-04-03T04:17:54;102337.19;;;-2.45;77.52
79374;BME280;68844;53.128;17.958;2023-04-03T04:20:22;102340.89;;;-2.49;77.17
79374;BME280;68844;53.128;17.958;2023-04-03T04:22:49;102346.16;;;-2.53;78.19
79374;BME280;68844;53.128;17.958;2023-04-03T04:25:17;102347.93;;;-2.51;77.58
79374;BME280;68844;53.128;17.958;2023-04-03T04:27:44;102349.25;;;-2.45;77.95
79374;BME280;68844;53.128;17.958;2023-04-03T04:30:13;102347.61;;;-2.42;78.12
79374;BME280;68844;53.128;17.958;2023-04-03T04:32:41;102347.67;;;-2.38;78.08
79374;BME280;68844;53.128;17.958;2023-04-03T04:35:08;102351.22;;;-2.35;77.99
79374;BME280;68844;53.128;17.958;2023-04-03T04:37:35;102349.20;;;-2.32;77.56
79374;BME280;68844;53.128;17.958;2023-04-03T04:40:03;102351.45;;;-2.31;77.92
79374;BME280;68844;53.128;17.958;2023-04-03T04:42:30;102347.48;;;-2.31;78.12
79374;BME280;68844;53.128;17.958;2023-04-03T04:44:58;102348.11;;;-2.27;77.38
79374;BME280;68844;53.128;17.958;2023-04-03T04:47:25;102348.73;;;-2.21;78.00
79374;BME280;68844;53.128;17.958;2023-04-03T04:49:52;102351.57;;;-2.18;77.90
79374;BME280;68844;53.128;17.958;2023-04-03T04:52:20;102355.08;;;-2.07;77.66
79374;BME280;68844;53.128;17.958;2023-04-03T04:54:46;102357.36;;;-1.52;76.65
79374;BME280;68844;53.128;17.958;2023-04-03T04:57:14;102358.23;;;-1.51;76.24
79374;BME280;68844;53.128;17.958;2023-04-03T04:59:41;102361.56;;;-1.18;75.94
79374;BME280;68844;53.128;17.958;2023-04-03T05:02:08;102363.05;;;0.11;73.92
79374;BME280;68844;53.128;17.958;2023-04-03T05:04:35;102361.58;;;1.90;71.50
79374;BME280;68844;53.128;17.958;2023-04-03T05:07:07;102359.55;;;3.34;69.56
79374;BME280;68844;53.128;17.958;2023-04-03T05:09:36;102359.65;;;4.51;66.13
79374;BME280;68844;53.128;17.958;2023-04-03T05:12:03;102359.62;;;5.58;62.90
79374;BME280;68844;53.128;17.958;2023-04-03T05:14:34;102359.80;;;6.45;60.98
79374;BME280;68844;53.128;17.958;2023-04-03T05:17:04;102360.53;;;7.21;57.23
79374;BME280;68844;53.128;17.958;2023-04-03T05:19:33;102358.80;;;8.11;56.21
79374;BME280;68844;53.128;17.958;2023-04-03T05:22:01;102358.52;;;8.57;50.97
79374;BME280;68844;53.128;17.958;2023-04-03T05:24:29;102357.25;;;9.09;51.14
79374;BME280;68844;53.128;17.958;2023-04-03T05:26:57;102360.86;;;9.33;46.45
79374;BME280;68844;53.128;17.958;2023-04-03T05:29:24;102349.81;;;10.02;47.24
79374;BME280;68844;53.128;17.958;2023-04-03T05:31:51;102355.39;;;10.03;46.22
79374;BME280;68844;53.128;17.958;2023-04-03T05:34:18;102356.59;;;10.64;45.82
79374;BME280;68844;53.128;17.958;2023-04-03T05:36:47;102356.70;;;10.71;43.43
79374;BME280;68844;53.128;17.958;2023-04-03T05:39:15;102355.61;;;11.31;41.65
79374;BME280;68844;53.128;17.958;2023-04-03T05:41:43;102358.88;;;10.74;38.94
79374;BME280;68844;53.128;17.958;2023-04-03T05:44:10;102352.14;;;11.69;39.91
79374;BME280;68844;53.128;17.958;2023-04-03T05:46:37;102353.14;;;12.09;38.44
79374;BME280;68844;53.128;17.958;2023-04-03T05:49:06;102354.56;;;12.45;36.74
79374;BME280;68844;53.128;17.958;2023-04-03T05:51:36;102351.67;;;12.51;35.72
79374;BME280;68844;53.128;17.958;2023-04-03T05:54:24;102356.23;;;11.86;34.27
79374;BME280;68844;53.128;17.958;2023-04-03T05:56:52;102355.91;;;12.10;34.77
79374;BME280;68844;53.128;17.958;2023-04-03T05:59:23;102357.29;;;12.70;34.72
79374;BME280;68844;53.128;17.958;2023-04-03T06:01:51;102351.77;;;12.84;34.09
79374;BME280;68844;53.128;17.958;2023-04-03T06:04:19;102358.10;;;10.95;35.41
79374;BME280;68844;53.128;17.958;2023-04-03T06:06:50;102366.76;;;8.86;38.98
79374;BME280;68844;53.128;17.958;2023-04-03T06:09:23;102370.72;;;7.55;40.71
79374;BME280;68844;53.128;17.958;2023-04-03T06:11:50;102375.44;;;6.52;42.76
79374;BME280;68844;53.128;17.958;2023-04-03T06:14:19;102365.98;;;7.58;40.92
79374;BME280;68844;53.128;17.958;2023-04-03T06:16:46;102375.98;;;7.90;40.44
79374;BME280;68844;53.128;17.958;2023-04-03T06:19:13;102370.91;;;10.26;37.36
79374;BME280;68844;53.128;17.958;2023-04-03T06:21:43;102377.04;;;10.55;34.62
79374;BME280;68844;53.128;17.958;2023-04-03T06:24:14;102379.93;;;8.87;37.57
79374;BME280;68844;53.128;17.958;2023-04-03T06:26:42;102380.27;;;9.10;37.39
79374;BME280;68844;53.128;17.958;2023-04-03T06:29:09;102383.11;;;9.07;36.71
79374;BME280;68844;53.128;17.958;2023-04-03T06:31:36;102384.96;;;10.96;34.28
79374;BME280;68844;53.128;17.958;2023-04-03T06:34:03;102380.02;;;11.68;32.03
79374;BME280;68844;53.128;17.958;2023-04-03T06:36:30;102382.34;;;13.44;30.40
79374;BME280;68844;53.128;17.958;2023-04-03T06:38:57;102383.99;;;12.73;30.35
79374;BME280;68844;53.128;17.958;2023-04-03T06:41:25;102382.43;;;13.45;29.67
79374;BME280;68844;53.128;17.958;2023-04-03T06:43:53;102384.19;;;11.09;31.29
79374;BME280;68844;53.128;17.958;2023-04-03T06:46:24;102386.27;;;12.67;30.73
79374;BME280;68844;53.128;17.958;2023-04-03T06:48:52;102387.39;;;13.81;28.59
79374;BME280;68844;53.128;17.958;2023-04-03T06:51:25;102388.03;;;14.64;27.58
79374;BME280;68844;53.128;17.958;2023-04-03T06:53:55;102395.50;;;13.01;28.50
79374;BME280;68844;53.128;17.958;2023-04-03T06:56:22;102394.21;;;12.88;28.47
79374;BME280;68844;53.128;17.958;2023-04-03T06:58:49;102402.54;;;11.91;29.52
79374;BME280;68844;53.128;17.958;2023-04-03T07:01:18;102399.48;;;13.97;27.25
79374;BME280;68844;53.128;17.958;2023-04-03T07:03:46;102409.89;;;12.93;27.09
79374;BME280;68844;53.128;17.958;2023-04-03T07:06:16;102413.19;;;11.09;29.67
79374;BME280;68844;53.128;17.958;2023-04-03T07:08:43;102417.46;;;9.74;31.69
79374;BME280;68844;53.128;17.958;2023-04-03T07:11:12;102419.09;;;9.24;33.00
79374;BME280;68844;53.128;17.958;2023-04-03T07:13:40;102423.08;;;7.81;35.44
79374;BME280;68844;53.128;17.958;2023-04-03T07:16:08;102426.00;;;6.91;37.14
79374;BME280;68844;53.128;17.958;2023-04-03T07:18:35;102434.17;;;5.96;38.78
79374;BME280;68844;53.128;17.958;2023-04-03T07:21:03;102434.13;;;5.50;40.19
79374;BME280;68844;53.128;17.958;2023-04-03T07:23:30;102438.85;;;5.70;39.71
79374;BME280;68844;53.128;17.958;2023-04-03T07:25:57;102437.45;;;5.88;40.43
79374;BME280;68844;53.128;17.958;2023-04-03T07:28:24;102442.41;;;5.97;40.25
79374;BME280;68844;53.128;17.958;2023-04-03T07:31:04;102439.67;;;4.89;42.53
79374;BME280;68844;53.128;17.958;2023-04-03T07:33:33;102440.77;;;4.84;42.82
79374;BME280;68844;53.128;17.958;2023-04-03T07:36:01;102449.38;;;4.35;43.94
79374;BME280;68844;53.128;17.958;2023-04-03T07:38:28;102442.69;;;7.46;38.70
79374;BME280;68844;53.128;17.958;2023-04-03T07:40:55;102444.09;;;7.28;37.50
79374;BME280;68844;53.128;17.958;2023-04-03T07:43:22;102435.71;;;8.72;34.98
79374;BME280;68844;53.128;17.958;2023-04-03T07:45:51;102434.60;;;10.98;30.82
79374;BME280;68844;53.128;17.958;2023-04-03T07:48:20;102438.86;;;11.51;30.11
79374;BME280;68844;53.128;17.958;2023-04-03T07:50:47;102434.81;;;11.77;29.46
79374;BME280;68844;53.128;17.958;2023-04-03T07:53:15;102434.59;;;11.05;30.18
79374;BME280;68844;53.128;17.958;2023-04-03T07:55:42;102442.86;;;9.13;32.55
79374;BME280;68844;53.128;17.958;2023-04-03T07:58:14;102437.38;;;8.28;34.24
79374;BME280;68844;53.128;17.958;2023-04-03T08:00:42;102439.59;;;8.78;33.58
79374;BME280;68844;53.128;17.958;2023-04-03T08:03:10;102435.67;;;11.54;29.05
79374;BME280;68844;53.128;17.958;2023-04-03T08:05:41;102432.23;;;13.97;26.30
79374;BME280;68844;53.128;17.958;2023-04-03T08:08:09;102437.27;;;14.51;24.44
79374;BME280;68844;53.128;17.958;2023-04-03T08:10:37;102438.17;;;13.60;24.35
79374;BME280;68844;53.128;17.958;2023-04-03T08:13:04;102438.30;;;13.16;25.04
79374;BME280;68844;53.128;17.958;2023-04-03T08:15:31;102439.74;;;13.81;23.78
79374;BME280;68844;53.128;17.958;2023-04-03T08:18:00;102443.40;;;13.99;23.25
79374;BME280;68844;53.128;17.958;2023-04-03T08:20:27;102439.91;;;15.17;22.00
79374;BME280;68844;53.128;17.958;2023-04-03T08:22:54;102439.09;;;16.13;21.55
79374;BME280;68844;53.128;17.958;2023-04-03T08:25:21;102438.30;;;15.66;20.92
79374;BME280;68844;53.128;17.958;2023-04-03T08:27:48;102436.41;;;16.39;20.97
79374;BME280;68844;53.128;17.958;2023-04-03T08:30:15;102437.30;;;16.49;20.59
79374;BME280;68844;53.128;17.958;2023-04-03T08:32:42;102438.42;;;15.11;21.16
79374;BME280;68844;53.128;17.958;2023-04-03T08:35:10;102438.11;;;15.77;20.89
79374;BME280;68844;53.128;17.958;2023-04-03T08:37:39;102438.05;;;14.93;21.88
79374;BME280;68844;53.128;17.958;2023-04-03T08:40:10;102437.90;;;15.27;21.00
79374;BME280;68844;53.128;17.958;2023-04-03T08:45:49;102445.00;;;17.23;20.14
79374;BME280;68844;53.128;17.958;2023-04-03T08:48:27;102443.30;;;16.34;19.90
79374;BME280;68844;53.128;17.958;2023-04-03T08:51:03;102443.04;;;13.69;22.04
79374;BME280;68844;53.128;17.958;2023-04-03T08:53:35;102445.17;;;13.14;23.05
79374;BME280;68844;53.128;17.958;2023-04-03T08:56:09;102443.20;;;14.37;21.17
79374;BME280;68844;53.128;17.958;2023-04-03T08:58:50;102434.38;;;15.95;20.00
79374;BME280;68844;53.128;17.958;2023-04-03T09:01:34;102449.02;;;13.98;20.31
79374;BME280;68844;53.128;17.958;2023-04-03T09:04:05;102449.36;;;13.59;21.70
79374;BME280;68844;53.128;17.958;2023-04-03T09:06:38;102451.75;;;14.05;20.97
79374;BME280;68844;53.128;17.958;2023-04-03T09:09:13;102448.69;;;13.13;21.95
79374;BME280;68844;53.128;17.958;2023-04-03T09:12:06;102446.06;;;12.00;23.41
79374;BME280;68844;53.128;17.958;2023-04-03T09:17:51;102448.73;;;13.45;22.04
79374;BME280;68844;53.128;17.958;2023-04-03T09:23:19;102453.43;;;10.08;26.60
79374;BME280;68844;53.128;17.958;2023-04-03T09:25:50;102452.80;;;9.26;27.86
79374;BME280;68844;53.128;17.958;2023-04-03T09:28:20;102450.48;;;10.52;27.01
79374;BME280;68844;53.128;17.958;2023-04-03T09:30:47;102451.29;;;10.94;26.45
79374;BME280;68844;53.128;17.958;2023-04-03T09:33:13;102446.44;;;12.29;24.40
79374;BME280;68844;53.128;17.958;2023-04-03T09:35:41;102453.54;;;11.84;24.83
79374;BME280;68844;53.128;17.958;2023-04-03T09:43:33;102445.12;;;12.32;24.50
79374;BME280;68844;53.128;17.958;2023-04-03T09:46:30;102447.03;;;10.60;26.95
79374;BME280;68844;53.128;17.958;2023-04-03T09:49:00;102453.91;;;9.92;28.70
79374;BME280;68844;53.128;17.958;2023-04-03T09:51:28;102463.48;;;8.88;30.06
79374;BME280;68844;53.128;17.958;2023-04-03T09:53:55;102462.20;;;7.71;30.65
79374;BME280;68844;53.128;17.958;2023-04-03T09:56:26;102463.05;;;8.45;29.19
79374;BME280;68844;53.128;17.958;2023-04-03T10:01:33;102448.19;;;11.57;25.86
79374;BME280;68844;53.128;17.958;2023-04-03T10:04:18;102443.30;;;12.25;24.12
79374;BME280;68844;53.128;17.958;2023-04-03T10:06:47;102438.14;;;13.20;23.41
79374;BME280;68844;53.128;17.958;2023-04-03T10:09:19;102436.10;;;12.96;24.05
79374;BME280;68844;53.128;17.958;2023-04-03T10:18:19;102445.46;;;9.72;27.77
79374;BME280;68844;53.128;17.958;2023-04-03T10:23:44;102465.17;;;7.58;30.98
79374;BME280;68844;53.128;17.958;2023-04-03T10:29:21;102453.80;;;7.78;29.75
79374;BME280;68844;53.128;17.958;2023-04-03T10:32:18;102461.05;;;7.34;30.95
79374;BME280;68844;53.128;17.958;2023-04-03T10:34:46;102459.55;;;6.95;32.17
79374;BME280;68844;53.128;17.958;2023-04-03T10:37:24;102460.63;;;6.41;32.49
79374;BME280;68844;53.128;17.958;2023-04-03T10:53:21;102440.45;;;9.52;28.00
79374;BME280;68844;53.128;17.958;2023-04-03T10:59:50;102446.57;;;9.64;28.13
79374;BME280;68844;53.128;17.958;2023-04-03T11:01:48;102436.25;;;10.01;27.46
79374;BME280;68844;53.128;17.958;2023-04-03T11:04:19;102436.16;;;10.21;27.73
79374;BME280;68844;53.128;17.958;2023-04-03T11:06:57;102431.30;;;11.19;26.75
79374;BME280;68844;53.128;17.958;2023-04-03T11:09:40;102435.29;;;10.30;27.53
79374;BME280;68844;53.128;17.958;2023-04-03T11:12:46;102443.73;;;8.28;30.06
79374;BME280;68844;53.128;17.958;2023-04-03T11:15:17;102445.15;;;8.28;29.85
79374;BME280;68844;53.128;17.958;2023-04-03T11:17:57;102444.91;;;7.85;30.57
79374;BME280;68844;53.128;17.958;2023-04-03T11:20:30;102443.55;;;7.52;31.39
79374;BME280;68844;53.128;17.958;2023-04-03T11:25:36;102436.14;;;7.04;32.17
79374;BME280;68844;53.128;17.958;2023-04-03T11:28:06;102433.48;;;7.77;29.85
79374;BME280;68844;53.128;17.958;2023-04-03T11:30:47;102416.81;;;7.87;29.47
79374;BME280;68844;53.128;17.958;2023-04-03T11:33:32;102418.55;;;7.98;29.59
79374;BME280;68844;53.128;17.958;2023-04-03T11:36:08;102411.83;;;8.50;29.51
79374;BME280;68844;53.128;17.958;2023-04-03T11:38:42;102404.74;;;8.37;29.82
79374;BME280;68844;53.128;17.958;2023-04-03T11:41:11;102403.37;;;7.65;30.43
79374;BME280;68844;53.128;17.958;2023-04-03T11:44:05;102399.69;;;8.28;30.30
79374;BME280;68844;53.128;17.958;2023-04-03T11:50:00;102403.09;;;9.45;29.36
79374;BME280;68844;53.128;17.958;2023-04-03T12:14:02;102399.94;;;7.61;32.01
79374;BME280;68844;53.128;17.958;2023-04-03T12:16:42;102403.39;;;7.14;32.42
79374;BME280;68844;53.128;17.958;2023-04-03T12:24:25;102407.89;;;6.95;32.98
79374;BME280;68844;53.128;17.958;2023-04-03T12:29:37;102406.02;;;6.93;32.95
79374;BME280;68844;53.128;17.958;2023-04-03T12:38:23;102394.56;;;8.13;31.87
79374;BME280;68844;53.128;17.958;2023-04-03T12:43:47;102389.20;;;7.55;32.40
79374;BME280;68844;53.128;17.958;2023-04-03T12:46:19;102396.04;;;7.14;33.67
79374;BME280;68844;53.128;17.958;2023-04-03T12:51:32;102390.68;;;7.40;34.34
79374;BME280;68844;53.128;17.958;2023-04-03T12:54:15;102387.80;;;7.55;33.36
79374;BME280;68844;53.128;17.958;2023-04-03T12:56:43;102392.21;;;7.32;33.26
79374;BME280;68844;53.128;17.958;2023-04-03T12:59:23;102383.80;;;7.43;33.08
79374;BME280;68844;53.128;17.958;2023-04-03T13:01:58;102380.09;;;7.44;32.08
79374;BME280;68844;53.128;17.958;2023-04-03T13:04:31;102386.02;;;7.04;32.55
79374;BME280;68844;53.128;17.958;2023-04-03T13:06:58;102380.41;;;7.16;32.32
79374;BME280;68844;53.128;17.958;2023-04-03T13:09:28;102387.61;;;7.15;33.02
79374;BME280;68844;53.128;17.958;2023-04-03T13:12:08;102389.94;;;7.01;31.95
79374;BME280;68844;53.128;17.958;2023-04-03T13:14:37;102390.03;;;6.73;32.21
79374;BME280;68844;53.128;17.958;2023-04-03T13:17:16;102392.77;;;6.27;33.55
79374;BME280;68844;53.128;17.958;2023-04-03T13:19:44;102387.36;;;6.63;33.68
79374;BME280;68844;53.128;17.958;2023-04-03T13:22:33;102383.02;;;6.96;33.40
79374;BME280;68844;53.128;17.958;2023-04-03T13:25:07;102376.93;;;7.15;32.56
79374;BME280;68844;53.128;17.958;2023-04-03T13:27:35;102377.11;;;6.57;32.69
79374;BME280;68844;53.128;17.958;2023-04-03T13:30:04;102374.17;;;6.43;33.20
79374;BME280;68844;53.128;17.958;2023-04-03T13:32:31;102379.50;;;6.63;33.76
79374;BME280;68844;53.128;17.958;2023-04-03T13:34:59;102363.02;;;6.65;32.86
79374;BME280;68844;53.128;17.958;2023-04-03T13:37:30;102360.02;;;6.55;34.11
79374;BME280;68844;53.128;17.958;2023-04-03T13:40:18;102366.02;;;6.75;33.93
79374;BME280;68844;53.128;17.958;2023-04-03T13:42:45;102373.03;;;6.37;33.10
79374;BME280;68844;53.128;17.958;2023-04-03T13:45:25;102371.52;;;6.19;33.33
79374;BME280;68844;53.128;17.958;2023-04-03T13:48:27;102373.00;;;5.83;34.14
79374;BME280;68844;53.128;17.958;2023-04-03T13:51:04;102366.85;;;6.01;34.36
79374;BME280;68844;53.128;17.958;2023-04-03T13:53:34;102365.46;;;6.66;34.02
79374;BME280;68844;53.128;17.958;2023-04-03T13:56:19;102367.69;;;6.80;33.61
79374;BME280;68844;53.128;17.958;2023-04-03T13:59:01;102373.38;;;6.63;33.99
79374;BME280;68844;53.128;17.958;2023-04-03T14:01:51;102371.86;;;6.21;35.45
79374;BME280;68844;53.128;17.958;2023-04-03T14:04:23;102376.63;;;5.85;36.86
79374;BME280;68844;53.128;17.958;2023-04-03T14:06:51;102372.59;;;5.72;37.41
79374;BME280;68844;53.128;17.958;2023-04-03T14:09:20;102377.98;;;5.59;37.56
79374;BME280;68844;53.128;17.958;2023-04-03T14:11:50;102374.36;;;5.34;38.30
79374;BME280;68844;53.128;17.958;2023-04-03T14:14:31;102368.48;;;5.46;38.25
79374;BME280;68844;53.128;17.958;2023-04-03T14:17:01;102360.48;;;6.06;37.27
79374;BME280;68844;53.128;17.958;2023-04-03T14:19:33;102355.25;;;6.69;37.15
79374;BME280;68844;53.128;17.958;2023-04-03T14:22:10;102355.45;;;7.00;35.90
79374;BME280;68844;53.128;17.958;2023-04-03T14:24:38;102351.77;;;6.78;35.95
79374;BME280;68844;53.128;17.958;2023-04-03T14:27:16;102355.86;;;6.51;37.01
79374;BME280;68844;53.128;17.958;2023-04-03T14:29:43;102359.41;;;6.10;38.03
79374;BME280;68844;53.128;17.958;2023-04-03T14:32:13;102364.91;;;5.87;39.43
79374;BME280;68844;53.128;17.958;2023-04-03T14:34:42;102368.37;;;5.41;41.10
79374;BME280;68844;53.128;17.958;2023-04-03T14:37:16;102367.17;;;5.18;41.91